Stations météo

réclame
Mon MeteoGroup
Melle, Belgique (6434): Température de l'air & dewpoint: 19.09.2017 22:00:00 - 25.09.2017 22:00:00 (CEST)Melle, Belgique (6434): Vitesse du vent & gusts: 19.09.2017 22:00:00 - 25.09.2017 22:00:00 (CEST)Melle, Belgique (6434): Direction du vent: 19.09.2017 22:00:00 - 25.09.2017 22:00:00 (CEST)Melle, Belgique (6434): reduced air pressure: 19.09.2017 22:00:00 - 25.09.2017 22:00:00 (CEST)Melle, Belgique (6434): Ensoleillement: 19.09.2017 22:00:00 - 25.09.2017 22:00:00 (CEST)Melle, Belgique (6434): Quantités de précipitations: 19.09.2017 22:00:00 - 25.09.2017 22:00:00 (CEST)
Date & Time tt [°C] td [°C] ff [km/h] ff [knt] fx [km/h] fx [knt] dd ppp [hPa] sd [min] rr [mm]
25.09.2017 22:00:00 11,5 10,4 0 0 7 4 N 1020,8 - -
25.09.2017 21:00:00 12,3 10,9 0 0 5 3 N 1020,8 0 0,0
25.09.2017 20:00:00 13,9 11,3 4 2 11 6 ENE 1020,5 0 0,0
25.09.2017 19:00:00 18,1 11,6 8 4 12 7 NE 1020,1 19 0,0
25.09.2017 18:00:00 19,4 11,0 8 4 16 9 E 1019,8 60 0,0
25.09.2017 17:00:00 20,1 11,0 10 5 19 10 ENE 1019,7 60 0,0
25.09.2017 16:00:00 20,1 11,7 10 6 19 10 E 1019,5 60 0,0
25.09.2017 15:00:00 19,5 11,9 12 7 21 11 ENE 1019,7 60 0,0
25.09.2017 14:00:00 19,3 11,7 11 6 20 11 E 1019,9 60 0,0
25.09.2017 13:00:00 18,9 12,4 10 5 16 9 E 1020,3 60 0,0
25.09.2017 12:00:00 17,5 12,7 7 4 14 8 E 1020,5 60 0,0
25.09.2017 11:00:00 14,8 11,8 7 4 11 6 E 1020,8 60 0,0
25.09.2017 10:00:00 12,2 11,1 7 4 9 5 E 1020,5 60 0,0
25.09.2017 09:00:00 10,3 10,1 6 3 11 6 E 1020,6 32 0,0
25.09.2017 08:00:00 7,6 7,5 4 2 7 4 E 1020,6 0 0,0
25.09.2017 07:00:00 9,1 8,8 5 3 8 4 E 1020,5 0 0,0
25.09.2017 06:00:00 8,2 8,2 5 3 9 5 ENE 1020,2 0 0,0
25.09.2017 05:00:00 9,5 9,2 4 2 10 5 SSW 1020,7 0 0,0
25.09.2017 04:00:00 10,2 10,0 6 3 8 4 E 1020,8 0 0,0
25.09.2017 03:00:00 9,2 9,2 4 2 6 3 E 1021,1 0 0,0
25.09.2017 02:00:00 9,2 8,6 0 0 5 3 N 1021,5 0 0,0
25.09.2017 01:00:00 9,2 8,5 4 2 8 4 ENE 1021,8 0 0,0
25.09.2017 00:00:00 11,0 9,6 7 4 9 5 ENE 1021,9 0 0,0
24.09.2017 23:00:00 11,9 9,9 7 4 11 6 ENE 1021,6 0 0,0
24.09.2017 22:00:00 14,0 10,7 8 4 13 7 E 1021,7 0 0,0
24.09.2017 21:00:00 14,9 10,4 9 5 11 6 E 1021,5 0 0,0
24.09.2017 20:00:00 16,6 9,8 7 4 14 7 E 1021,4 10 0,0
24.09.2017 19:00:00 19,2 10,1 10 5 17 9 E 1021,0 60 0,0
24.09.2017 18:00:00 20,6 10,0 9 5 16 9 ESE 1021,0 60 0,0
24.09.2017 17:00:00 20,9 9,5 11 6 21 12 ESE 1021,3 60 0,0
24.09.2017 16:00:00 21,0 10,2 10 5 21 11 SE 1021,4 60 0,0
24.09.2017 15:00:00 20,3 11,3 11 6 21 11 ESE 1021,9 60 0,0
24.09.2017 14:00:00 19,4 12,8 11 6 19 10 ESE 1022,1 60 0,0
24.09.2017 13:00:00 18,0 12,6 11 6 16 9 E 1022,3 60 0,0
24.09.2017 12:00:00 16,7 12,5 5 3 10 5 SE 1022,7 60 0,0
24.09.2017 11:00:00 14,1 11,5 5 3 11 6 ESE 1022,7 60 0,0
24.09.2017 10:00:00 11,1 9,8 8 4 12 7 E 1022,6 60 0,0
24.09.2017 09:00:00 8,8 8,3 0 0 9 5 N 1022,4 41 0,0
24.09.2017 08:00:00 7,4 7,2 7 4 9 5 ESE 1022,0 0 0,0
24.09.2017 07:00:00 6,4 6,3 6 3 9 5 E 1022,0 0 0,0
24.09.2017 06:00:00 6,0 5,9 4 2 9 5 ENE 1022,0 0 0,0
24.09.2017 05:00:00 6,3 6,1 9 5 10 6 E 1022,0 0 0,0
24.09.2017 04:00:00 5,5 5,3 0 0 6 3 N 1022,2 0 0,0
24.09.2017 03:00:00 5,9 5,5 4 2 5 3 E 1022,6 0 0,0
24.09.2017 02:00:00 6,3 5,8 0 0 8 5 N 1022,8 0 0,0
24.09.2017 01:00:00 7,3 6,3 5 3 7 4 E 1023,0 0 0,0
24.09.2017 00:00:00 7,3 6,5 0 0 6 3 N 1023,0 0 0,0
23.09.2017 23:00:00 8,4 7,1 4 2 7 4 ESE 1023,1 0 0,0
23.09.2017 22:00:00 9,6 7,9 4 2 6 3 ESE 1023,1 0 0,0
23.09.2017 21:00:00 11,0 8,8 4 2 10 5 SE 1022,8 0 0,0
23.09.2017 20:00:00 13,6 9,6 7 4 12 6 E 1022,7 29 0,0
23.09.2017 19:00:00 16,9 10,0 9 5 14 7 E 1022,8 60 0,0
23.09.2017 18:00:00 17,8 10,1 8 5 15 8 E 1022,6 60 0,0
23.09.2017 17:00:00 18,0 10,2 7 4 16 9 E 1022,9 60 0,0
23.09.2017 16:00:00 18,0 10,5 8 5 17 9 E 1023,4 60 0,0
23.09.2017 15:00:00 17,9 10,4 8 5 14 8 E 1023,9 60 0,0
23.09.2017 14:00:00 17,7 10,7 7 4 17 9 E 1024,2 57 0,0
23.09.2017 13:00:00 16,6 11,1 9 5 16 9 E 1024,7 60 0,0
23.09.2017 12:00:00 15,3 11,8 7 4 13 7 E 1024,8 60 0,0
23.09.2017 11:00:00 13,2 11,3 6 3 10 5 ESE 1025,0 60 0,0
23.09.2017 10:00:00 9,9 9,5 4 2 4 2 NNE 1024,8 28 0,0
23.09.2017 09:00:00 7,5 7,5 0 0 6 3 N 1024,7 3 0,0
23.09.2017 08:00:00 6,4 6,4 4 2 5 3 SSE 1024,8 0 0,0
23.09.2017 07:00:00 5,9 5,9 4 2 6 3 E 1024,4 0 0,0
23.09.2017 06:00:00 5,4 5,4 0 0 4 2 N 1024,6 0 0,0
23.09.2017 05:00:00 5,7 5,6 0 0 4 2 N 1024,5 0 0,0
23.09.2017 04:00:00 5,9 5,8 4 2 4 2 SSE 1024,6 0 0,0
23.09.2017 03:00:00 6,6 6,5 0 0 4 2 N 1024,7 0 0,0
23.09.2017 02:00:00 7,3 7,0 0 0 5 3 N 1024,3 0 0,0
23.09.2017 01:00:00 8,3 8,1 4 2 5 3 SW 1024,2 0 0,0
23.09.2017 00:00:00 8,8 8,5 4 2 4 2 WSW 1024,2 0 0,0
22.09.2017 23:00:00 9,2 8,7 4 2 5 3 WSW 1024,2 0 0,0
22.09.2017 22:00:00 10,3 9,5 4 2 4 2 WSW 1023,8 0 0,0
22.09.2017 21:00:00 11,9 10,0 5 3 10 5 N 1023,4 0 0,0
22.09.2017 20:00:00 14,5 11,3 7 4 15 8 N 1022,8 32 0,0
22.09.2017 19:00:00 16,7 11,6 13 7 20 11 N 1022,1 48 0,0
22.09.2017 18:00:00 17,5 12,1 13 7 20 11 NNW 1021,7 51 0,0
22.09.2017 17:00:00 18,4 11,9 11 6 22 12 NW 1021,5 45 0,0
22.09.2017 16:00:00 18,3 12,9 11 6 21 12 NW 1021,4 42 0,0
22.09.2017 15:00:00 17,4 13,7 8 4 16 9 NW 1021,3 13 0,2
22.09.2017 14:00:00 17,9 14,3 4 2 17 9 NNW 1021,3 19 0,0
22.09.2017 13:00:00 16,7 13,9 10 5 16 9 W 1021,2 7 0,0
22.09.2017 12:00:00 15,2 13,2 10 5 14 8 SW 1021,1 2 0,0
22.09.2017 11:00:00 14,3 13,2 5 3 8 5 WSW 1020,8 0 0,0
22.09.2017 10:00:00 12,8 11,9 5 3 9 5 SW 1020,7 0 0,0
22.09.2017 09:00:00 12,5 11,7 4 2 7 4 SSW 1020,3 0 0,0
22.09.2017 08:00:00 11,7 10,8 0 0 7 4 N 1019,8 0 0,0
22.09.2017 07:00:00 11,6 10,5 4 2 12 7 SW 1019,5 0 0,0
22.09.2017 06:00:00 11,2 10,0 6 4 11 6 WSW 1019,4 0 0,0
22.09.2017 05:00:00 9,7 9,0 6 3 8 4 WSW 1019,4 0 0,0
22.09.2017 04:00:00 - - - - - - - - - -
22.09.2017 03:00:00 - - - - - - - - 0 -
22.09.2017 02:00:00 11,5 9,7 4 2 8 5 S 1019,2 0 0,0
22.09.2017 01:00:00 10,6 9,0 4 2 9 5 SE 1019,2 0 0,0
22.09.2017 00:00:00 11,8 9,8 5 3 9 5 SSE 1019,2 0 0,0
21.09.2017 23:00:00 12,5 9,9 5 3 9 5 SE 1019,2 0 0,0
21.09.2017 22:00:00 13,3 10,0 7 4 10 6 SSE 1019,2 0 0,0
21.09.2017 21:00:00 14,1 10,1 7 4 10 5 SSE 1019,2 0 0,0
21.09.2017 20:00:00 15,3 10,4 7 4 10 5 S 1018,7 3 0,0
21.09.2017 19:00:00 17,8 10,4 7 4 16 9 SSE 1018,3 60 0,0
21.09.2017 18:00:00 18,9 10,1 12 7 22 12 S 1018,1 60 0,0
21.09.2017 17:00:00 19,0 10,5 12 7 22 12 SSW 1018,2 60 0,0
21.09.2017 16:00:00 18,9 9,9 12 7 23 13 S 1018,3 60 0,0
21.09.2017 15:00:00 19,1 10,0 15 8 27 15 S 1018,7 60 0,0
21.09.2017 14:00:00 18,6 9,9 14 8 25 14 S 1019,2 60 0,0
21.09.2017 13:00:00 17,5 10,4 17 9 27 15 S 1019,7 60 0,0
21.09.2017 12:00:00 16,4 10,6 11 6 25 14 S 1019,9 - -
21.09.2017 11:00:00 13,9 9,5 11 6 21 11 S 1020,1 60 0,0
21.09.2017 10:00:00 12,2 8,9 13 7 24 13 S 1019,9 54 0,0
21.09.2017 09:00:00 11,5 8,7 11 6 20 11 S 1019,8 54 0,0
21.09.2017 08:00:00 10,4 8,3 11 6 18 10 S 1019,6 0 0,0
21.09.2017 07:00:00 10,5 8,5 11 6 23 13 S 1019,6 0 0,0
21.09.2017 06:00:00 10,8 8,7 12 6 22 12 S 1019,7 0 0,0
21.09.2017 05:00:00 11,0 8,8 10 5 16 9 S 1019,8 0 0,0
21.09.2017 04:00:00 11,3 9,0 11 6 19 10 S 1020,0 0 0,0
21.09.2017 03:00:00 11,1 9,0 9 5 16 8 S 1020,3 0 0,0
21.09.2017 02:00:00 11,5 9,3 7 4 16 9 S 1020,3 0 0,0
21.09.2017 01:00:00 12,0 9,7 9 5 18 10 S 1020,3 0 0,0
21.09.2017 00:00:00 13,3 10,3 11 6 18 10 S 1020,4 0 0,0
20.09.2017 23:00:00 13,9 11,1 9 5 13 7 S 1020,4 0 0,0
20.09.2017 22:00:00 13,6 11,2 8 4 9 5 S 1020,5 0 0,0
20.09.2017 21:00:00 14,6 11,3 7 4 11 6 SW 1020,5 0 0,0
20.09.2017 20:00:00 14,9 11,5 7 4 15 8 SW 1020,3 0 0,0
20.09.2017 19:00:00 16,0 11,1 9 5 20 11 SSW 1020,3 0 0,0
20.09.2017 18:00:00 16,8 10,3 10 5 23 12 SW 1020,4 4 0,0
20.09.2017 17:00:00 16,8 10,5 16 9 26 14 SW 1020,7 57 0,0
20.09.2017 16:00:00 16,8 10,8 14 8 27 15 SW 1020,9 2 0,0
20.09.2017 15:00:00 16,3 11,2 8 4 18 10 SW 1021,0 2 0,0
20.09.2017 14:00:00 16,4 10,5 9 5 22 12 WSW 1021,4 30 0,0
20.09.2017 13:00:00 16,4 11,3 11 6 24 13 WSW 1021,5 60 0,0
20.09.2017 12:00:00 14,9 11,8 11 6 22 12 SW 1021,6 60 0,0
20.09.2017 11:00:00 13,5 10,8 12 7 22 12 SW 1021,6 60 0,0
20.09.2017 10:00:00 11,9 9,8 13 7 22 12 SW 1021,7 60 0,0
20.09.2017 09:00:00 9,7 8,6 8 5 14 7 SW 1021,5 18 0,0
20.09.2017 08:00:00 9,0 8,1 7 4 13 7 SW 1021,5 0 0,0
20.09.2017 07:00:00 8,7 8,1 7 4 10 5 WSW 1021,5 0 0,0
20.09.2017 06:00:00 9,3 8,6 7 4 12 6 SW 1021,3 0 0,0
20.09.2017 05:00:00 9,7 9,0 8 5 13 7 SW 1021,4 0 0,0
20.09.2017 04:00:00 10,2 9,5 8 5 11 6 WSW 1021,8 0 0,0
20.09.2017 03:00:00 10,9 10,3 5 3 13 7 W 1022,1 0 0,0
20.09.2017 02:00:00 11,5 11,1 7 4 10 5 WSW 1022,1 0 0,0
20.09.2017 01:00:00 11,7 11,1 5 3 8 4 SW 1022,1 0 0,0
20.09.2017 00:00:00 12,4 11,5 4 2 8 5 W 1022,3 0 0,0
19.09.2017 23:00:00 12,4 11,5 6 3 9 5 W 1022,3 0 0,0
19.09.2017 22:00:00 12,6 11,6 5 3 11 6 W 1022,1 0 0,0

tt = Température de l'air
td = dewpoint
ff = Vitesse du vent
fx = gusts
dd = Direction du vent
ppp = reduced air pressure
sd = Ensoleillement
rr = Quantités de précipitations

stations d'obs. à proximité